Time;durP1;ratioP1;P1;durP2;ratioP2;P2;SDS_P1;SDS_P2;PMS_P1;PMS_P2;Temp;Humidity;BMP_temperature;BMP_pressure;BME280_temperature;BME280_humidity;BME280_pressure;Samples;Min_cycle;Max_cycle;Signal;HPM_P1;HPM_P2
2022/08/27 00:00:29;;;;;;;15.60;9.95;;;;;;;19.87;76.31;101043.50;1629872;86;21513;-83
2022/08/27 00:03:01;;;;;;;16.45;9.88;;;;;;;19.87;76.31;101043.50;1631234;86;21501;-83
2022/08/27 00:05:28;;;;;;;17.82;9.68;;;;;;;19.97;76.36;101066.12;1640908;86;21068;-83
2022/08/27 00:07:55;;;;;;;18.75;9.88;;;;;;;19.96;76.42;101068.34;1637406;86;21023;-83
2022/08/27 00:10:23;;;;;;;16.82;10.63;;;;;;;19.93;76.45;101063.05;1654164;86;21028;-83
2022/08/27 00:12:50;;;;;;;17.25;9.13;;;;;;;19.90;76.51;101059.52;1650625;85;21043;-83
2022/08/27 00:15:17;;;;;;;13.98;8.90;;;;;;;19.89;76.56;101062.61;1671958;85;21686;-83
2022/08/27 00:17:44;;;;;;;13.35;9.28;;;;;;;19.88;76.62;101061.31;1670804;85;20991;-83
2022/08/27 00:20:12;;;;;;;14.83;10.35;;;;;;;19.85;76.56;101060.87;1649074;85;21778;-83
2022/08/27 00:22:39;;;;;;;12.98;9.80;;;;;;;19.83;76.60;101057.79;1632816;86;21071;-83
2022/08/27 00:25:06;;;;;;;18.92;10.18;;;;;;;19.78;76.64;101052.04;1645210;86;21557;-83
2022/08/27 00:27:33;;;;;;;12.43;9.60;;;;;;;19.75;76.66;101041.83;1651552;86;21756;-83
2022/08/27 00:30:07;;;;;;;18.10;10.32;;;;;;;19.74;76.77;101049.39;1675737;85;21040;-83
2022/08/27 00:32:32;;;;;;;14.65;9.58;;;;;;;19.72;76.81;101047.15;1650174;86;21845;-83
2022/08/27 00:34:59;;;;;;;15.10;8.90;;;;;;;19.69;76.85;101047.16;1668200;85;21005;-83
2022/08/27 00:37:31;;;;;;;14.60;9.55;;;;;;;19.69;76.85;101047.16;1648681;86;21112;-83
2022/08/27 00:40:03;;;;;;;12.60;8.93;;;;;;;19.66;76.97;101047.20;1642140;86;21764;-83
2022/08/27 00:42:38;;;;;;;14.47;9.20;;;;;;;19.66;76.97;101047.20;1651433;86;21027;-83
2022/08/27 00:45:09;;;;;;;15.38;9.85;;;;;;;19.65;77.04;101050.30;1668659;85;21426;-83
2022/08/27 00:47:40;;;;;;;12.47;8.88;;;;;;;19.64;77.07;101048.55;1629369;86;21489;-83
2022/08/27 00:50:13;;;;;;;13.55;9.33;;;;;;;19.62;77.07;101040.55;1627399;87;21043;-83
2022/08/27 00:53:02;;;;;;;;;;;;;;;;;;;;;
2022/08/27 00:55:25;;;;;;;26.68;10.30;;;;;;;19.61;77.11;101046.80;1618328;87;21497;-82
2022/08/27 00:58:20;;;;;;;15.05;9.20;;;;;;;19.60;77.13;101050.81;1633057;87;21490;-83
2022/08/27 01:00:46;;;;;;;14.35;9.28;;;;;;;19.58;77.15;101044.14;1643141;86;21071;-83
2022/08/27 01:03:16;;;;;;;16.45;9.43;;;;;;;19.57;77.12;101049.48;1598650;87;21016;-83
2022/08/27 01:05:43;;;;;;;13.62;9.08;;;;;;;19.53;77.15;101045.95;1622768;87;21739;-83
2022/08/27 01:08:14;;;;;;;13.13;8.83;;;;;;;19.51;77.12;101049.08;1647995;85;21027;-83
2022/08/27 01:10:41;;;;;;;14.65;8.68;;;;;;;19.35;77.10;101010.95;1650106;85;21587;-83
2022/08/27 01:13:13;;;;;;;16.02;8.88;;;;;;;19.35;77.10;101010.95;1626028;85;21130;-83
2022/08/27 01:15:40;;;;;;;18.75;9.13;;;;;;;19.45;77.17;101037.13;1652658;85;21666;-84
2022/08/27 01:18:12;;;;;;;11.12;8.50;;;;;;;19.44;77.15;101035.33;1634294;86;21789;-83
2022/08/27 01:21:04;;;;;;;13.95;8.60;;;;;;;19.43;77.16;101037.58;1616115;86;21017;-83
2022/08/27 01:24:00;;;;;;;15.30;9.45;;;;;;;19.40;77.17;101040.27;1612382;87;21982;-83
2022/08/27 01:26:30;;;;;;;12.88;8.58;;;;;;;19.36;77.16;101037.18;1616400;88;21037;-83
2022/08/27 01:29:03;;;;;;;15.50;8.75;;;;;;;19.33;77.27;101042.53;1616846;86;21486;-83
2022/08/27 01:31:30;;;;;;;13.70;9.13;;;;;;;19.32;77.32;101042.98;1617334;88;21723;-84
2022/08/27 01:34:04;;;;;;;12.43;7.92;;;;;;;19.31;77.29;101038.98;1617246;86;21782;-82
2022/08/27 01:39:03;;;;;;;14.60;8.68;;;;;;;19.30;77.37;101040.78;1569999;88;20204;-83
2022/08/27 01:41:32;;;;;;;17.02;8.83;;;;;;;19.27;77.25;101046.13;1610311;87;21072;-83
2022/08/27 01:44:01;;;;;;;15.90;8.33;;;;;;;19.25;77.31;101047.04;1618531;88;22576;-82
2022/08/27 01:46:27;;;;;;;17.52;9.05;;;;;;;19.23;77.33;101046.59;1620805;88;21017;-83
2022/08/27 01:48:54;;;;;;;15.20;8.23;;;;;;;19.19;77.35;101047.50;1621397;86;21536;-83
2022/08/27 01:51:36;;;;;;;15.58;8.05;;;;;;;19.18;77.37;101047.51;1632796;86;21605;-82
2022/08/27 01:53:58;;;;;;;18.65;8.48;;;;;;;19.17;77.37;101044.42;1643125;85;21108;-83
2022/08/27 01:56:27;;;;;;;10.85;8.43;;;;;;;19.14;77.39;101037.30;1646090;86;22422;-82
2022/08/27 01:58:59;;;;;;;14.65;8.45;;;;;;;19.15;77.44;101041.75;1644628;85;20958;-83
2022/08/27 02:01:35;;;;;;;15.48;8.78;;;;;;;19.13;77.45;101041.34;1635739;87;21012;-83
2022/08/27 02:03:59;;;;;;;13.32;9.33;;;;;;;19.12;77.51;101045.76;1632948;86;21043;-83
2022/08/27 02:06:26;;;;;;;15.38;8.40;;;;;;;19.12;77.53;101043.55;1629983;87;21019;-83
2022/08/27 02:08:53;;;;;;;14.93;8.03;;;;;;;19.09;77.48;101042.22;1627421;87;21725;-83
2022/08/27 02:11:19;;;;;;;12.28;8.48;;;;;;;19.06;77.55;101043.59;1636404;87;21024;-82
2022/08/27 02:13:47;;;;;;;14.35;8.40;;;;;;;19.02;77.58;101047.59;1631158;86;21006;-83
2022/08/27 02:16:13;;;;;;;10.55;8.18;;;;;;;18.99;77.65;101044.05;1670329;85;21059;-83
2022/08/27 02:18:40;;;;;;;14.98;9.35;;;;;;;18.97;77.71;101039.18;1665216;85;21016;-83
2022/08/27 02:21:07;;;;;;;11.73;8.95;;;;;;;18.95;77.72;101040.97;1644643;86;21765;-82
2022/08/27 02:23:34;;;;;;;13.43;8.20;;;;;;;18.94;77.82;101041.42;1666949;85;21083;-83
2022/08/27 02:26:00;;;;;;;9.90;7.85;;;;;;;18.93;77.82;101050.77;1655023;85;20999;-83
2022/08/27 02:28:27;;;;;;;13.13;8.55;;;;;;;18.91;77.92;101043.22;1654612;85;21033;-83
2022/08/27 02:30:54;;;;;;;12.13;8.48;;;;;;;18.90;77.95;101042.34;1648816;85;21003;-83
2022/08/27 02:33:21;;;;;;;11.60;8.28;;;;;;;18.89;77.97;101043.67;1668183;85;21769;-83
2022/08/27 02:35:47;;;;;;;12.63;9.20;;;;;;;18.87;78.01;101041.47;1651383;86;20945;-83
2022/08/27 02:38:14;;;;;;;13.00;8.33;;;;;;;18.85;77.97;101040.13;1651277;86;21000;-82
2022/08/27 02:40:41;;;;;;;9.65;8.15;;;;;;;18.81;78.02;101033.92;1668260;85;21111;-83
2022/08/27 02:43:08;;;;;;;12.85;8.25;;;;;;;18.81;78.10;101034.38;1654692;86;21043;-83
2022/08/27 02:45:36;;;;;;;11.22;8.25;;;;;;;18.79;78.11;101034.34;1652440;85;21024;-83
2022/08/27 02:48:06;;;;;;;12.70;8.28;;;;;;;18.79;78.14;101033.02;1642772;85;21000;-83
2022/08/27 02:50:33;;;;;;;14.25;7.65;;;;;;;18.78;78.13;101035.68;1640619;86;21000;-83
2022/08/27 02:53:03;;;;;;;10.03;7.62;;;;;;;18.76;78.16;101035.68;1664387;85;21015;-83
2022/08/27 02:55:29;;;;;;;12.47;8.25;;;;;;;18.74;78.21;101033.92;1626017;86;21027;-83
2022/08/27 02:57:56;;;;;;;14.23;7.95;;;;;;;18.71;78.17;101039.27;1675144;84;22381;-82
2022/08/27 03:00:24;;;;;;;12.23;8.00;;;;;;;18.68;78.26;101032.63;1677091;83;21047;-83
2022/08/27 03:02:51;;;;;;;13.60;8.35;;;;;;;18.66;78.37;101029.96;1657495;84;21023;-83
2022/08/27 03:05:18;;;;;;;17.02;8.80;;;;;;;18.64;78.33;101029.08;1607046;87;21055;-83
2022/08/27 03:07:45;;;;;;;16.12;8.40;;;;;;;18.60;78.33;101024.63;1647122;86;21060;-83
2022/08/27 03:10:13;;;;;;;11.10;7.85;;;;;;;18.59;78.41;101027.75;1610616;86;21769;-83
2022/08/27 03:12:40;;;;;;;11.38;8.03;;;;;;;18.57;78.48;101031.33;1620864;87;20932;-83
2022/08/27 03:15:11;;;;;;;10.40;8.13;;;;;;;18.56;78.52;101027.78;1642656;85;21031;-83
2022/08/27 03:20:23;;;;;;;12.68;7.80;;;;;;;18.51;78.57;101022.91;1631668;86;21027;-82
2022/08/27 03:22:52;;;;;;;10.55;7.70;;;;;;;18.51;78.69;101024.69;1628786;85;21474;-83
2022/08/27 03:25:18;;;;;;;12.18;7.65;;;;;;;18.50;78.72;101029.56;1666701;84;21099;-83
2022/08/27 03:27:47;;;;;;;12.25;8.68;;;;;;;18.48;78.71;101024.23;1652234;85;21020;-83
2022/08/27 03:30:17;;;;;;;12.82;8.48;;;;;;;18.47;78.77;101023.81;1662316;84;21002;-83
2022/08/27 03:32:44;;;;;;;13.80;9.55;;;;;;;18.44;78.77;101022.02;1639333;85;21012;-83
2022/08/27 03:35:11;;;;;;;15.05;8.45;;;;;;;18.44;78.91;101020.69;1653942;86;22570;-83
2022/08/27 03:37:37;;;;;;;14.78;8.33;;;;;;;18.44;78.88;101020.69;1628754;86;21080;-82
2022/08/27 03:40:07;;;;;;;14.87;8.43;;;;;;;18.42;78.92;101023.81;1654823;85;21044;-82
2022/08/27 03:42:34;;;;;;;15.35;8.03;;;;;;;18.40;78.90;101029.59;1645615;85;21016;-82
2022/08/27 03:45:00;;;;;;;12.63;8.45;;;;;;;18.39;78.87;101026.50;1641615;85;21024;-83
2022/08/27 03:47:27;;;;;;;15.25;8.48;;;;;;;18.37;78.88;101024.71;1648143;85;21614;-83
2022/08/27 03:49:54;;;;;;;14.65;8.43;;;;;;;18.36;78.96;101020.29;1643286;86;21028;-83
2022/08/27 03:52:24;;;;;;;12.03;8.75;;;;;;;18.35;79.03;101025.16;1676148;85;21809;-83
2022/08/27 03:54:51;;;;;;;11.53;7.67;;;;;;;18.38;79.18;101019.84;1644404;85;21031;-83
2022/08/27 03:57:20;;;;;;;10.68;8.58;;;;;;;18.39;79.17;101016.27;1674450;84;21011;-82
2022/08/27 03:59:46;;;;;;;11.38;7.95;;;;;;;18.42;79.21;101023.81;1675130;85;21910;-83
2022/08/27 04:02:15;;;;;;;11.88;7.45;;;;;;;18.46;79.28;101022.02;1642120;86;21453;-83
2022/08/27 04:04:42;;;;;;;12.55;7.50;;;;;;;18.53;79.45;101026.45;1634465;86;21509;-83
2022/08/27 04:07:09;;;;;;;12.73;7.65;;;;;;;18.75;79.88;101024.59;1676936;85;21067;-82
2022/08/27 04:09:36;;;;;;;16.90;8.95;;;;;;;19.06;79.89;101023.13;1645552;85;22244;-82
2022/08/27 04:12:03;;;;;;;9.20;7.42;;;;;;;19.42;79.77;101018.44;1618118;87;21746;-82
2022/08/27 04:14:35;;;;;;;11.22;7.30;;;;;;;19.83;79.54;101016.39;1612107;86;21071;-83
2022/08/27 04:17:02;;;;;;;10.75;7.35;;;;;;;20.26;79.16;101014.62;1625028;86;21083;-82
2022/08/27 04:19:31;;;;;;;10.05;6.78;;;;;;;20.76;78.83;101017.20;1610341;87;21091;-83
2022/08/27 04:22:01;;;;;;;10.18;7.37;;;;;;;21.33;78.32;101007.89;1630593;86;21027;-82
2022/08/27 04:24:30;;;;;;;13.32;7.53;;;;;;;22.48;76.69;101009.03;1633734;85;22561;-83
2022/08/27 04:26:59;;;;;;;17.62;8.73;;;;;;;22.48;76.69;101009.03;1633482;86;21059;-83
2022/08/27 04:29:26;;;;;;;11.65;6.95;;;;;;;23.05;75.90;101009.22;1633428;86;21098;-84
2022/08/27 04:31:53;;;;;;;9.80;6.95;;;;;;;23.58;74.59;101018.73;1628800;86;21046;-84
2022/08/27 04:34:20;;;;;;;13.00;6.92;;;;;;;24.14;73.75;101016.84;1654172;86;21074;-84
2022/08/27 04:36:47;;;;;;;11.20;6.87;;;;;;;24.62;72.69;101018.66;1642880;84;21764;-84
2022/08/27 04:39:13;;;;;;;9.63;6.87;;;;;;;25.18;72.09;101021.04;1651468;86;21071;-84
2022/08/27 04:41:40;;;;;;;9.25;7.00;;;;;;;25.72;70.81;101013.94;1647394;86;21792;-83
2022/08/27 04:44:09;;;;;;;7.92;6.33;;;;;;;26.18;69.55;101015.05;1649186;86;21520;-84
2022/08/27 04:46:38;;;;;;;10.38;6.55;;;;;;;26.69;68.74;101014.56;1647015;86;21457;-84
2022/08/27 04:52:04;;;;;;;11.55;5.85;;;;;;;27.75;67.40;101009.48;1603722;86;21094;-85
2022/08/27 04:54:32;;;;;;;10.28;6.37;;;;;;;28.62;65.87;101004.76;1652704;84;21048;-83
2022/08/27 04:57:19;;;;;;;10.45;6.05;;;;;;;29.20;64.87;101003.36;1659526;86;21031;-85
2022/08/27 04:59:46;;;;;;;12.63;5.67;;;;;;;29.77;63.57;101004.64;1658488;84;21095;-83
2022/08/27 05:02:13;;;;;;;8.08;6.17;;;;;;;30.37;62.34;101001.98;1659731;86;22420;-83
2022/08/27 05:04:40;;;;;;;12.82;6.42;;;;;;;30.87;61.49;101006.47;1656132;84;20991;-83
2022/08/27 05:07:07;;;;;;;10.93;6.62;;;;;;;31.44;60.42;101004.62;1659314;84;21040;-83
2022/08/27 05:09:37;;;;;;;8.75;6.53;;;;;;;32.00;59.28;101005.43;1613640;86;21015;-83
2022/08/27 05:12:04;;;;;;;8.70;6.40;;;;;;;32.41;57.97;101004.75;1632191;85;21038;-83
2022/08/27 05:14:31;;;;;;;11.00;6.30;;;;;;;32.57;56.14;101006.94;1627827;85;21740;-84
2022/08/27 05:16:58;;;;;;;10.48;6.47;;;;;;;32.31;54.86;101009.91;1606242;86;21047;-84
2022/08/27 05:19:25;;;;;;;10.30;6.40;;;;;;;31.63;53.99;101011.25;1626513;86;21051;-83
2022/08/27 05:21:52;;;;;;;12.95;6.30;;;;;;;30.81;53.60;101014.98;1602492;86;21051;-84
2022/08/27 05:24:19;;;;;;;10.60;6.45;;;;;;;30.00;53.57;101016.14;1624319;85;21043;-84
2022/08/27 05:26:46;;;;;;;11.93;6.30;;;;;;;29.29;53.88;101012.89;1639243;85;22439;-84
2022/08/27 05:29:13;;;;;;;10.88;6.35;;;;;;;28.73;54.21;101015.97;1608580;86;21612;-84
2022/08/27 05:31:40;;;;;;;13.95;6.78;;;;;;;28.21;54.57;101014.25;1628692;85;21106;-83
2022/08/27 05:34:16;;;;;;;10.75;6.30;;;;;;;27.75;54.80;101014.41;1600833;86;21413;-84
2022/08/27 05:36:45;;;;;;;8.15;6.45;;;;;;;27.36;55.36;101013.77;1624443;85;21456;-84
2022/08/27 05:39:11;;;;;;;15.13;6.90;;;;;;;27.04;55.56;101015.03;1623338;85;22520;-83
2022/08/27 05:41:45;;;;;;;9.93;6.55;;;;;;;26.72;55.86;101017.16;1597638;86;20912;-84
2022/08/27 05:44:12;;;;;;;11.68;5.92;;;;;;;26.46;55.83;101016.75;1619809;84;21054;-84
2022/08/27 05:46:39;;;;;;;10.58;6.10;;;;;;;26.12;56.26;101019.33;1624468;84;21074;-84
2022/08/27 05:49:06;;;;;;;12.68;6.47;;;;;;;25.88;56.56;101017.84;1598705;86;22216;-84
2022/08/27 05:51:34;;;;;;;13.03;6.15;;;;;;;25.69;56.96;101012.21;1633949;84;22605;-84
2022/08/27 05:54:09;;;;;;;8.33;6.65;;;;;;;25.53;57.09;101014.55;1651945;84;21074;-84
2022/08/27 05:56:37;;;;;;;16.73;7.67;;;;;;;25.39;57.27;101012.77;1644940;85;21047;-84
2022/08/27 06:01:45;;;;;;;10.80;6.37;;;;;;;25.10;57.67;101018.59;1642451;86;21054;-83
2022/08/27 06:04:13;;;;;;;19.12;6.70;;;;;;;24.93;57.81;101010.16;1649590;83;21750;-83
2022/08/27 06:06:41;;;;;;;10.93;7.00;;;;;;;24.82;58.13;101011.82;1645768;84;21336;-83
2022/08/27 06:09:09;;;;;;;10.65;6.85;;;;;;;24.70;58.18;101013.52;1648516;86;21058;-81
2022/08/27 06:11:36;;;;;;;10.20;7.10;;;;;;;24.59;58.48;101014.73;1627567;84;21892;-81
2022/08/27 06:14:03;;;;;;;14.05;6.92;;;;;;;24.51;58.60;101014.02;1647231;84;21079;-84
2022/08/27 06:16:30;;;;;;;10.18;7.67;;;;;;;24.43;58.66;101015.58;1639484;84;22586;-84
2022/08/27 06:18:58;;;;;;;9.13;6.70;;;;;;;24.32;58.91;101024.89;1640601;84;21011;-83
2022/08/27 06:21:25;;;;;;;8.88;7.17;;;;;;;24.30;59.19;101024.05;1647753;84;21011;-84
2022/08/27 06:23:53;;;;;;;15.05;7.53;;;;;;;24.28;59.36;101021.88;1643627;84;21055;-84
2022/08/27 06:26:21;;;;;;;12.43;8.25;;;;;;;24.23;59.52;101022.89;1640446;84;21571;-83
2022/08/27 06:28:49;;;;;;;13.28;7.08;;;;;;;24.22;59.71;101021.11;1643291;84;23243;-83
2022/08/27 06:31:19;;;;;;;9.60;7.22;;;;;;;24.25;59.80;101021.47;1648627;85;21487;-83
2022/08/27 06:33:46;;;;;;;11.45;7.42;;;;;;;24.24;59.83;101022.42;1633649;84;21531;-83
2022/08/27 06:36:19;;;;;;;11.28;6.92;;;;;;;24.23;59.95;101021.55;1642615;84;21031;-83
2022/08/27 06:38:48;;;;;;;12.88;7.75;;;;;;;24.22;60.07;101021.11;1643580;85;21030;-83
2022/08/27 06:41:14;;;;;;;13.30;7.75;;;;;;;24.23;60.29;101017.51;1648112;85;21920;-83
2022/08/27 06:43:44;;;;;;;16.97;7.70;;;;;;;24.24;60.26;101017.03;1646614;84;21048;-84
2022/08/27 06:46:15;;;;;;;9.88;7.05;;;;;;;24.22;60.17;101018.89;1647552;85;21019;-83
2022/08/27 06:48:46;;;;;;;13.95;7.45;;;;;;;24.16;60.16;101018.59;1650099;84;21035;-83
2022/08/27 06:51:23;;;;;;;11.12;7.45;;;;;;;24.16;60.33;101019.94;1653953;84;21036;-83
2022/08/27 06:54:02;;;;;;;11.55;7.83;;;;;;;24.17;60.40;101014.96;1662741;85;21802;-82
2022/08/27 06:56:23;;;;;;;17.95;8.30;;;;;;;24.19;60.32;101019.83;1656410;84;25263;-83
2022/08/27 06:58:54;;;;;;;12.93;7.20;;;;;;;24.20;60.30;101018.92;1653116;84;21494;-85
2022/08/27 07:01:30;;;;;;;10.38;7.45;;;;;;;24.18;60.24;101018.09;1652812;84;21493;-83
2022/08/27 07:03:59;;;;;;;11.75;7.40;;;;;;;24.18;60.37;101019.91;1648511;84;21856;-82
2022/08/27 07:06:26;;;;;;;15.00;8.80;;;;;;;24.20;60.41;101018.92;1655785;84;21763;-83
2022/08/27 07:08:53;;;;;;;13.78;8.08;;;;;;;24.21;60.51;101013.07;1648895;84;21015;-84
2022/08/27 07:11:19;;;;;;;17.65;7.03;;;;;;;24.21;60.65;101016.67;1657352;84;21078;-83
2022/08/27 07:13:46;;;;;;;12.73;7.87;;;;;;;24.17;60.69;101016.78;1650135;84;21078;-83
2022/08/27 07:16:16;;;;;;;15.78;8.40;;;;;;;24.20;61.01;101020.73;1652542;84;21099;-83
2022/08/27 07:18:42;;;;;;;19.92;7.95;;;;;;;24.17;60.84;101019.00;1654754;84;21755;-84
2022/08/27 07:21:09;;;;;;;13.75;7.80;;;;;;;24.15;60.92;101013.25;1658898;84;21053;-83
2022/08/27 07:23:37;;;;;;;15.40;7.65;;;;;;;24.12;60.95;101018.70;1647034;84;21000;-83
2022/08/27 07:26:09;;;;;;;13.85;7.97;;;;;;;24.15;61.06;101009.22;1651708;84;21275;-83
2022/08/27 07:28:36;;;;;;;15.00;8.35;;;;;;;24.05;61.16;100991.11;1661229;84;21007;-83
2022/08/27 07:31:07;;;;;;;11.65;8.85;;;;;;;24.25;61.18;101006.23;1659606;84;22578;-82
2022/08/27 07:33:35;;;;;;;12.70;8.75;;;;;;;24.31;61.06;101007.88;1650224;84;21047;-82
2022/08/27 07:36:06;;;;;;;10.28;7.95;;;;;;;24.40;61.07;101005.37;1656804;84;21023;-82
2022/08/27 07:38:34;;;;;;;13.88;8.10;;;;;;;24.49;61.11;101008.27;1658886;84;21095;-83
2022/08/27 07:41:07;;;;;;;13.03;8.23;;;;;;;24.55;60.92;101011.72;1654855;84;21106;-83
2022/08/27 07:46:20;;;;;;;15.20;8.35;;;;;;;24.57;60.66;101001.78;1644319;84;20175;-83
2022/08/27 07:48:48;;;;;;;13.10;8.50;;;;;;;24.55;60.79;101002.30;1647834;85;21923;-83
2022/08/27 07:51:18;;;;;;;17.57;8.80;;;;;;;24.54;61.00;101000.98;1653359;84;21110;-86
2022/08/27 07:53:45;;;;;;;16.80;8.90;;;;;;;24.58;60.95;101004.88;1650931;84;21084;-83
2022/08/27 07:56:12;;;;;;;12.45;8.73;;;;;;;24.64;61.00;101007.85;1627213;84;21734;-83
2022/08/27 07:58:39;;;;;;;10.72;7.50;;;;;;;24.68;61.02;100999.23;1655110;84;21041;-83
2022/08/27 08:01:06;;;;;;;16.48;8.60;;;;;;;24.71;61.03;100999.15;1651096;84;22021;-83
2022/08/27 08:03:33;;;;;;;12.20;8.05;;;;;;;24.78;61.03;100996.70;1659587;84;20999;-83
2022/08/27 08:06:06;;;;;;;10.13;7.70;;;;;;;24.86;61.10;101002.72;1654355;84;20929;-83
2022/08/27 08:08:34;;;;;;;12.13;8.65;;;;;;;24.92;61.13;100998.48;1655585;84;23144;-83
2022/08/27 08:11:02;;;;;;;13.70;10.03;;;;;;;25.01;61.13;101002.71;1664762;84;21015;-83
2022/08/27 08:13:30;;;;;;;10.70;7.80;;;;;;;25.11;61.05;100993.88;1647814;84;21053;-83
2022/08/27 08:15:57;;;;;;;15.55;7.65;;;;;;;25.21;60.88;100998.05;1632392;84;21064;-83
2022/08/27 08:18:25;;;;;;;10.63;7.90;;;;;;;25.29;60.79;100999.19;1635849;84;37625;-83
2022/08/27 08:20:52;;;;;;;12.23;7.80;;;;;;;25.36;60.55;100995.38;1622329;85;22487;-83
2022/08/27 08:23:19;;;;;;;16.07;9.25;;;;;;;25.43;60.35;100995.55;1655125;84;21024;-83
2022/08/27 08:25:46;;;;;;;14.07;8.50;;;;;;;25.45;60.18;100996.38;1636825;84;21434;-83
2022/08/27 08:28:13;;;;;;;11.97;8.78;;;;;;;25.47;60.06;101004.42;1646041;85;21015;-83
2022/08/27 08:30:42;;;;;;;11.90;7.90;;;;;;;25.47;60.03;101003.98;1647663;84;21086;-84
2022/08/27 08:33:09;;;;;;;10.43;8.03;;;;;;;25.52;60.26;100996.60;1651508;84;21740;-83
2022/08/27 08:35:39;;;;;;;12.45;8.15;;;;;;;25.59;60.19;100999.52;1662197;83;21055;-83
2022/08/27 08:38:06;;;;;;;20.37;10.80;;;;;;;25.63;60.04;100998.08;1602695;85;21058;-83
2022/08/27 08:40:48;;;;;;;10.70;8.08;;;;;;;25.67;60.02;100993.86;1639653;84;21504;-83
2022/08/27 08:43:38;;;;;;;14.33;8.25;;;;;;;25.76;60.10;100996.72;1659870;83;21055;-85
2022/08/27 08:46:22;;;;;;;14.15;7.70;;;;;;;25.84;60.02;100995.97;1624663;85;21751;-83
2022/08/27 08:48:51;;;;;;;8.83;7.90;;;;;;;25.92;59.94;100997.09;1646595;85;20947;-83
2022/08/27 08:51:26;;;;;;;14.83;7.70;;;;;;;26.02;59.75;100998.55;1642232;84;21599;-84
2022/08/27 08:54:03;;;;;;;14.58;8.00;;;;;;;26.07;59.33;101000.62;1654278;84;21038;-84
2022/08/27 08:56:43;;;;;;;10.18;8.45;;;;;;;26.11;59.14;101002.70;1628853;85;21121;-83
2022/08/27 08:59:18;;;;;;;12.07;8.30;;;;;;;26.15;59.13;101002.56;1647312;86;21840;-83
2022/08/27 09:01:45;;;;;;;11.85;8.20;;;;;;;26.22;59.08;101000.50;1629267;86;21893;-83
2022/08/27 09:04:12;;;;;;;11.33;7.85;;;;;;;26.25;58.66;100988.74;1601608;88;21564;-84
2022/08/27 09:07:13;;;;;;;12.18;8.48;;;;;;;26.26;58.47;100998.14;1600729;88;21500;-83
2022/08/27 09:09:57;;;;;;;18.45;8.80;;;;;;;26.28;58.50;100996.26;1603173;87;21030;-83
2022/08/27 09:12:29;;;;;;;14.43;8.45;;;;;;;26.35;58.53;101003.20;1603380;87;21744;-83
2022/08/27 09:15:20;;;;;;;8.80;7.90;;;;;;;26.42;58.63;100995.73;1616621;88;21042;-83
2022/08/27 09:17:46;;;;;;;12.28;7.72;;;;;;;26.48;58.36;100999.55;1618871;86;21010;-83
2022/08/27 09:20:14;;;;;;;11.95;7.72;;;;;;;26.55;58.36;101000.22;1644048;86;21081;-83
2022/08/27 09:23:07;;;;;;;9.50;7.62;;;;;;;26.62;58.15;101000.44;1644272;86;21066;-83
2022/08/27 09:25:37;;;;;;;10.03;7.42;;;;;;;26.70;57.94;100999.66;1644012;86;21925;-83
2022/08/27 09:29:14;;;;;;;13.03;7.70;;;;;;;26.80;57.75;100996.13;1644193;86;21014;-83
2022/08/27 09:30:41;;;;;;;18.40;7.95;;;;;;;26.89;57.70;100996.25;1635245;86;20949;-83
2022/08/27 09:33:08;;;;;;;11.10;7.70;;;;;;;26.98;57.43;100999.07;1629697;86;21073;-83
2022/08/27 09:35:43;;;;;;;10.80;7.40;;;;;;;27.01;57.02;100988.12;1643928;86;21197;-84
2022/08/27 09:38:12;;;;;;;15.68;8.20;;;;;;;27.03;57.00;100987.59;1631744;86;22434;-84
2022/08/27 09:40:42;;;;;;;13.08;7.37;;;;;;;27.07;56.83;100991.48;1637518;86;21013;-84
2022/08/27 09:43:22;;;;;;;12.25;8.03;;;;;;;27.13;56.73;100989.87;1644030;86;21404;-84
2022/08/27 09:46:07;;;;;;;13.25;7.58;;;;;;;27.19;56.72;100988.74;1643954;86;21026;-83
2022/08/27 09:48:35;;;;;;;8.45;6.72;;;;;;;27.25;56.27;100991.22;1641425;86;21002;-83
2022/08/27 09:51:15;;;;;;;8.18;7.00;;;;;;;27.28;56.03;100989.75;1646563;84;21734;-83
2022/08/27 09:53:54;;;;;;;12.82;6.78;;;;;;;27.36;55.68;100991.27;1654076;84;21347;-83
2022/08/27 09:56:27;;;;;;;11.10;7.22;;;;;;;27.42;55.40;100986.47;1666429;84;21023;-83
2022/08/27 09:59:04;;;;;;;7.75;6.70;;;;;;;27.49;55.09;100988.46;1653113;85;22266;-83
2022/08/27 10:01:33;;;;;;;10.13;8.05;;;;;;;27.52;54.66;100982.94;1643244;85;21040;-85
2022/08/27 10:04:12;;;;;;;11.20;7.25;;;;;;;27.59;54.57;100979.48;1657516;85;21748;-82
2022/08/27 10:06:45;;;;;;;10.13;7.25;;;;;;;27.65;54.33;100978.77;1668095;84;21044;-82
2022/08/27 10:09:36;;;;;;;8.30;6.50;;;;;;;27.70;54.17;100969.99;1668829;85;20988;-83
2022/08/27 10:12:17;;;;;;;12.23;7.10;;;;;;;27.78;53.91;100975.06;1634698;85;21035;-83
2022/08/27 10:14:48;;;;;;;9.40;6.62;;;;;;;27.85;53.53;100972.95;1667557;84;20943;-83
2022/08/27 10:17:44;;;;;;;9.33;6.08;;;;;;;27.90;53.21;100973.19;1662157;85;21758;-83
2022/08/27 10:20:37;;;;;;;12.13;6.22;;;;;;;27.98;52.94;100966.57;1634018;85;21031;-83
2022/08/27 10:23:24;;;;;;;7.78;6.53;;;;;;;28.05;52.79;100966.23;1644898;85;21048;-83
2022/08/27 10:26:27;;;;;;;8.80;6.70;;;;;;;28.13;52.64;100965.87;1665445;85;20996;-83
2022/08/27 10:29:14;;;;;;;9.20;5.93;;;;;;;28.21;52.48;100962.83;1667710;84;21004;-83
2022/08/27 10:31:58;;;;;;;13.30;6.85;;;;;;;28.23;52.23;100957.77;1667010;84;22575;-83
2022/08/27 10:34:45;;;;;;;12.58;6.65;;;;;;;28.29;51.93;100958.83;1630383;85;20926;-83
2022/08/27 10:37:29;;;;;;;10.15;6.55;;;;;;;28.39;51.81;100959.28;1662110;85;20992;-83
2022/08/27 10:40:06;;;;;;;11.53;6.10;;;;;;;28.42;51.33;100958.28;1668015;84;21028;-83
2022/08/27 10:42:53;;;;;;;15.03;7.00;;;;;;;28.47;51.30;100954.86;1667885;85;21083;-83
2022/08/27 10:45:35;;;;;;;12.53;7.58;;;;;;;28.54;51.05;100952.80;1649639;85;21667;-83
2022/08/27 10:48:13;;;;;;;8.55;6.17;;;;;;;28.58;50.87;100946.27;1637827;85;20996;-83
2022/08/27 10:50:57;;;;;;;15.55;6.67;;;;;;;28.66;50.96;100949.03;1667800;85;21159;-83
2022/08/27 10:53:32;;;;;;;7.35;6.05;;;;;;;28.75;50.75;100956.31;1638947;86;21003;-84
2022/08/27 10:56:15;;;;;;;11.80;6.83;;;;;;;28.80;50.50;100948.36;1650903;85;21121;-84
2022/08/27 10:58:54;;;;;;;11.73;6.62;;;;;;;28.85;50.23;100954.45;1672097;84;21785;-84
2022/08/27 11:01:56;;;;;;;8.78;6.25;;;;;;;28.86;50.00;100953.96;1678733;84;21003;-84
2022/08/27 11:04:27;;;;;;;8.63;6.83;;;;;;;28.87;49.94;100949.83;1659925;84;20992;-83
2022/08/27 11:07:08;;;;;;;13.03;6.62;;;;;;;28.95;49.39;100951.30;1667438;85;21023;-84
2022/08/27 11:09:43;;;;;;;11.57;7.08;;;;;;;29.03;49.34;100957.20;1668917;84;21088;-84
2022/08/27 11:12:12;;;;;;;8.93;6.95;;;;;;;29.09;49.31;100954.19;1626690;85;21766;-84
2022/08/27 11:14:59;;;;;;;10.18;6.53;;;;;;;29.14;48.85;100956.23;1655600;85;21032;-84
2022/08/27 11:17:35;;;;;;;12.47;6.15;;;;;;;29.18;48.49;100957.83;1644849;84;21007;-84
2022/08/27 11:20:27;;;;;;;14.45;5.87;;;;;;;29.19;48.02;100958.25;1681828;85;21031;-84
2022/08/27 11:23:08;;;;;;;7.40;6.20;;;;;;;29.20;47.98;100953.21;1649967;85;21063;-84
2022/08/27 11:25:52;;;;;;;9.95;6.50;;;;;;;29.24;48.01;100953.94;1664222;84;22711;-84
2022/08/27 11:28:28;;;;;;;8.98;5.85;;;;;;;29.31;47.72;100957.23;1672589;84;21015;-84
2022/08/27 11:31:07;;;;;;;10.32;6.35;;;;;;;29.31;47.43;100950.45;1686067;83;20984;-84
2022/08/27 11:33:54;;;;;;;8.03;6.22;;;;;;;29.37;47.28;100955.56;1669766;85;21059;-84
2022/08/27 11:36:32;;;;;;;7.60;6.80;;;;;;;29.40;47.21;100954.06;1652503;84;21072;-84
2022/08/27 11:39:16;;;;;;;8.63;6.55;;;;;;;29.43;47.02;100948.47;1683805;84;21756;-84
2022/08/27 11:42:10;;;;;;;13.08;6.47;;;;;;;29.46;46.93;100940.19;1636837;85;21059;-84
2022/08/27 11:44:43;;;;;;;10.23;6.30;;;;;;;29.49;46.74;100938.69;1649741;84;21054;-84
2022/08/27 11:47:23;;;;;;;10.98;5.78;;;;;;;29.54;46.45;100940.66;1679174;84;22082;-84
2022/08/27 11:50:02;;;;;;;10.65;5.42;;;;;;;29.56;46.10;100943.30;1679009;85;21019;-83
2022/08/27 11:52:37;;;;;;;9.70;5.75;;;;;;;29.57;45.72;100938.29;1675474;84;21055;-84